Time;durP1;ratioP1;P1;durP2;ratioP2;P2;SDS_P1;SDS_P2;PMS_P1;PMS_P2;Temp;Humidity;BMP_temperature;BMP_pressure;BME280_temperature;BME280_humidity;BME280_pressure;Samples;Min_cycle;Max_cycle;Signal;HPM_P1;HPM_P2
2023/01/08 00:01:11;;;;;;;7.75;5.30;;;;;;;;;;4942626;28;20059;-80
2023/01/08 00:03:38;;;;;;;8.65;6.30;;;;;;;;;;4944943;28;20051;-80
2023/01/08 00:06:07;;;;;;;7.05;5.13;;;;;;;;;;4941842;29;20083;-81
2023/01/08 00:08:34;;;;;;;6.93;5.78;;;;;;;;;;4940532;29;20083;-79
2023/01/08 00:11:01;;;;;;;6.90;5.47;;;;;;;;;;4940867;29;20146;-80
2023/01/08 00:13:28;;;;;;;8.27;5.25;;;;;;;;;;4940231;29;20062;-80
2023/01/08 00:15:55;;;;;;;6.40;5.10;;;;;;;;;;4944705;28;20078;-79
2023/01/08 00:18:23;;;;;;;8.00;4.90;;;;;;;;;;4974946;28;20054;-79
2023/01/08 00:20:49;;;;;;;6.88;5.50;;;;;;;;;;4958922;28;20061;-80
2023/01/08 00:23:18;;;;;;;9.30;5.85;;;;;;;;;;4955941;28;20062;-79
2023/01/08 00:25:44;;;;;;;10.23;5.78;;;;;;;;;;4942539;28;20050;-80
2023/01/08 00:28:13;;;;;;;15.48;6.28;;;;;;;;;;4956686;28;20057;-78
2023/01/08 00:30:41;;;;;;;9.48;5.57;;;;;;;;;;4941761;28;20061;-79
2023/01/08 00:33:08;;;;;;;7.88;5.22;;;;;;;;;;4945024;28;20059;-79
2023/01/08 00:35:36;;;;;;;7.20;5.03;;;;;;;;;;4960675;28;20073;-79
2023/01/08 00:38:04;;;;;;;7.50;5.38;;;;;;;;;;4976792;28;20056;-79
2023/01/08 00:40:32;;;;;;;7.75;5.88;;;;;;;;;;4960631;28;20054;-79
2023/01/08 00:42:59;;;;;;;7.03;5.18;;;;;;;;;;4944186;28;20500;-79
2023/01/08 00:45:26;;;;;;;7.70;5.70;;;;;;;;;;4942263;28;20061;-77
2023/01/08 00:47:53;;;;;;;7.30;5.97;;;;;;;;;;4966378;28;20053;-80
2023/01/08 00:50:19;;;;;;;8.30;5.43;;;;;;;;;;4928496;28;20082;-80
2023/01/08 00:52:46;;;;;;;6.38;4.97;;;;;;;;;;4959857;28;20054;-79
2023/01/08 00:55:13;;;;;;;7.05;5.68;;;;;;;;;;4948793;28;20868;-78
2023/01/08 00:57:40;;;;;;;6.70;5.20;;;;;;;;;;4931969;28;20058;-78
2023/01/08 01:00:08;;;;;;;8.65;5.50;;;;;;;;;;4947742;28;20117;-78
2023/01/08 01:02:35;;;;;;;7.97;5.28;;;;;;;;;;4959496;28;20063;-79
2023/01/08 01:05:03;;;;;;;7.50;5.82;;;;;;;;;;4942365;28;20054;-79
2023/01/08 01:07:30;;;;;;;9.43;5.53;;;;;;;;;;4957782;28;20133;-78
2023/01/08 01:09:57;;;;;;;8.55;6.25;;;;;;;;;;4942041;28;20137;-78
2023/01/08 01:12:24;;;;;;;9.82;5.80;;;;;;;;;;4975289;28;20094;-78
2023/01/08 01:14:51;;;;;;;8.98;6.25;;;;;;;;;;4960963;28;20423;-79
2023/01/08 01:17:17;;;;;;;13.10;6.65;;;;;;;;;;4955694;28;20047;-78
2023/01/08 01:19:44;;;;;;;9.25;5.65;;;;;;;;;;4955530;29;20438;-78
2023/01/08 01:22:11;;;;;;;11.10;6.93;;;;;;;;;;4937622;29;20530;-78
2023/01/08 01:24:38;;;;;;;10.95;7.13;;;;;;;;;;4936827;29;20093;-77
2023/01/08 01:27:04;;;;;;;9.18;6.78;;;;;;;;;;4952549;29;20066;-77
2023/01/08 01:29:31;;;;;;;8.40;6.20;;;;;;;;;;4951221;28;20055;-77
2023/01/08 01:31:58;;;;;;;9.05;5.90;;;;;;;;;;4936798;29;20055;-77
2023/01/08 01:34:25;;;;;;;9.98;6.57;;;;;;;;;;4953552;29;20058;-77
2023/01/08 01:36:51;;;;;;;8.57;6.13;;;;;;;;;;4936783;29;20058;-77
2023/01/08 01:39:18;;;;;;;8.90;5.90;;;;;;;;;;4936783;29;20066;-76
2023/01/08 01:41:46;;;;;;;7.40;5.75;;;;;;;;;;4936804;28;20051;-77
2023/01/08 01:44:34;;;;;;;9.38;6.22;;;;;;;;;;4936902;29;20069;-78
2023/01/08 01:47:05;;;;;;;10.48;6.22;;;;;;;;;;4952495;29;20138;-78
2023/01/08 01:49:32;;;;;;;7.50;5.93;;;;;;;;;;4922249;29;20135;-78
2023/01/08 01:52:01;;;;;;;8.63;6.40;;;;;;;;;;4938401;28;20078;-78
2023/01/08 01:54:28;;;;;;;7.97;6.43;;;;;;;;;;4928222;28;20067;-79
2023/01/08 01:56:55;;;;;;;7.53;5.57;;;;;;;;;;4935432;29;20043;-79
2023/01/08 01:59:22;;;;;;;7.57;5.43;;;;;;;;;;4921584;29;20059;-79
2023/01/08 02:01:49;;;;;;;8.55;6.10;;;;;;;;;;4953038;29;20054;-78
2023/01/08 02:04:16;;;;;;;7.03;5.45;;;;;;;;;;4959220;29;20031;-78
2023/01/08 02:06:56;;;;;;;7.47;5.85;;;;;;;;;;4959237;29;20051;-78
2023/01/08 02:09:32;;;;;;;9.07;5.75;;;;;;;;;;4952229;29;20455;-77
2023/01/08 02:12:31;;;;;;;6.63;5.05;;;;;;;;;;4965649;28;20055;-78
2023/01/08 02:15:17;;;;;;;6.70;5.43;;;;;;;;;;4948513;28;20066;-78
2023/01/08 02:18:06;;;;;;;6.82;5.35;;;;;;;;;;4956130;28;20054;-78
2023/01/08 02:20:43;;;;;;;7.80;5.90;;;;;;;;;;4940733;28;20057;-77
2023/01/08 02:23:16;;;;;;;6.75;5.30;;;;;;;;;;4957305;28;20054;-78
2023/01/08 02:26:17;;;;;;;6.95;5.15;;;;;;;;;;4950975;29;20058;-78
2023/01/08 02:28:47;;;;;;;6.75;5.25;;;;;;;;;;4936566;29;20389;-78
2023/01/08 02:31:14;;;;;;;6.07;4.97;;;;;;;;;;4937718;29;20466;-78
2023/01/08 02:33:40;;;;;;;6.30;4.85;;;;;;;;;;4920290;29;20074;-78
2023/01/08 02:36:25;;;;;;;6.40;5.50;;;;;;;;;;4941201;29;20059;-78
2023/01/08 02:39:17;;;;;;;7.38;5.50;;;;;;;;;;4936166;29;20066;-78
2023/01/08 02:42:10;;;;;;;6.82;5.40;;;;;;;;;;4936360;29;20079;-78
2023/01/08 02:44:55;;;;;;;8.45;4.93;;;;;;;;;;4939003;29;20051;-78
2023/01/08 02:47:26;;;;;;;6.35;5.10;;;;;;;;;;4954125;29;20477;-78
2023/01/08 02:50:21;;;;;;;5.28;4.57;;;;;;;;;;4922848;29;20303;-78
2023/01/08 02:52:59;;;;;;;6.68;5.03;;;;;;;;;;4945349;28;20059;-78
2023/01/08 02:55:25;;;;;;;5.20;4.32;;;;;;;;;;4957366;28;20121;-78
2023/01/08 02:57:52;;;;;;;5.43;4.78;;;;;;;;;;4972689;28;20047;-78
2023/01/08 03:00:19;;;;;;;8.02;4.80;;;;;;;;;;4940484;28;20058;-78
2023/01/08 03:02:46;;;;;;;6.78;5.05;;;;;;;;;;4939301;28;20079;-78
2023/01/08 03:05:25;;;;;;;8.00;4.90;;;;;;;;;;4941268;28;20419;-78
2023/01/08 03:07:52;;;;;;;6.10;4.43;;;;;;;;;;4940214;28;20171;-78
2023/01/08 03:10:20;;;;;;;6.47;4.85;;;;;;;;;;4940540;28;20055;-78
2023/01/08 03:13:01;;;;;;;6.95;5.30;;;;;;;;;;4935738;29;20192;-78
2023/01/08 03:15:35;;;;;;;7.40;5.07;;;;;;;;;;4938162;29;20073;-78
2023/01/08 03:18:08;;;;;;;6.63;4.65;;;;;;;;;;4920942;29;20500;-78
2023/01/08 03:20:35;;;;;;;10.60;5.38;;;;;;;;;;4936462;29;20062;-78
2023/01/08 03:23:03;;;;;;;5.00;4.50;;;;;;;;;;4927456;28;20055;-78
2023/01/08 03:25:30;;;;;;;6.82;4.78;;;;;;;;;;4940044;28;20062;-78
2023/01/08 03:27:59;;;;;;;6.75;5.22;;;;;;;;;;4939777;28;20057;-78
2023/01/08 03:30:26;;;;;;;7.13;5.00;;;;;;;;;;4940520;28;20061;-78
2023/01/08 03:32:53;;;;;;;7.15;4.55;;;;;;;;;;4940189;28;20486;-78
2023/01/08 03:35:21;;;;;;;6.68;4.75;;;;;;;;;;4955845;28;20555;-78
2023/01/08 03:37:55;;;;;;;5.60;4.72;;;;;;;;;;4940629;28;20058;-78
2023/01/08 03:40:30;;;;;;;5.22;4.47;;;;;;;;;;4925032;28;20058;-78
2023/01/08 03:42:57;;;;;;;7.78;4.97;;;;;;;;;;4934389;29;20058;-78
2023/01/08 03:45:23;;;;;;;7.47;5.10;;;;;;;;;;4935377;29;20062;-78
2023/01/08 03:47:50;;;;;;;7.13;4.63;;;;;;;;;;4938147;29;20055;-79
2023/01/08 03:50:21;;;;;;;5.57;4.68;;;;;;;;;;4954198;29;20062;-79
2023/01/08 03:52:48;;;;;;;6.78;4.57;;;;;;;;;;4940345;28;20081;-79
2023/01/08 03:55:15;;;;;;;5.38;4.55;;;;;;;;;;4955583;28;20055;-79
2023/01/08 03:57:42;;;;;;;5.75;4.20;;;;;;;;;;4955763;28;20062;-79
2023/01/08 04:00:09;;;;;;;7.28;5.13;;;;;;;;;;4955553;28;20327;-78
2023/01/08 04:02:36;;;;;;;5.45;4.10;;;;;;;;;;4969971;28;20055;-79
2023/01/08 04:05:03;;;;;;;5.45;4.75;;;;;;;;;;4939156;29;20555;-80
2023/01/08 04:07:30;;;;;;;6.30;4.55;;;;;;;;;;4941723;29;20067;-85
2023/01/08 04:09:56;;;;;;;7.20;5.05;;;;;;;;;;4941377;29;20425;-82
2023/01/08 04:12:23;;;;;;;5.00;4.20;;;;;;;;;;4946810;28;20054;-79
2023/01/08 04:14:50;;;;;;;5.15;4.15;;;;;;;;;;4972825;28;20030;-81
2023/01/08 04:17:18;;;;;;;7.60;4.80;;;;;;;;;;4973939;28;20048;-79
2023/01/08 04:19:44;;;;;;;5.63;4.28;;;;;;;;;;4958437;28;20061;-80
2023/01/08 04:22:11;;;;;;;6.70;4.40;;;;;;;;;;4964402;28;20058;-80
2023/01/08 04:24:40;;;;;;;5.82;4.40;;;;;;;;;;4956009;28;20054;-80
2023/01/08 04:27:07;;;;;;;5.28;4.30;;;;;;;;;;4973052;28;20073;-81
2023/01/08 04:29:33;;;;;;;5.38;4.10;;;;;;;;;;4961203;28;20054;-80
2023/01/08 04:32:00;;;;;;;4.90;4.40;;;;;;;;;;4949055;28;20521;-81
2023/01/08 04:34:27;;;;;;;5.38;4.45;;;;;;;;;;4966199;28;20504;-78
2023/01/08 04:36:56;;;;;;;5.57;4.25;;;;;;;;;;4966868;28;20058;-79
2023/01/08 04:39:23;;;;;;;7.40;4.65;;;;;;;;;;4966285;28;20047;-79
2023/01/08 04:41:50;;;;;;;5.78;4.03;;;;;;;;;;4977544;28;20069;-78
2023/01/08 04:44:17;;;;;;;5.70;4.25;;;;;;;;;;4963310;28;20042;-78
2023/01/08 04:46:45;;;;;;;6.00;4.03;;;;;;;;;;4975627;28;20054;-78
2023/01/08 04:49:13;;;;;;;5.65;4.22;;;;;;;;;;4944370;28;20057;-79
2023/01/08 04:51:42;;;;;;;7.05;4.13;;;;;;;;;;4928701;28;20515;-80
2023/01/08 04:54:08;;;;;;;6.68;3.83;;;;;;;;;;4960984;28;20078;-79
2023/01/08 04:56:37;;;;;;;6.10;3.83;;;;;;;;;;4960358;28;20058;-79
2023/01/08 04:59:04;;;;;;;6.00;4.22;;;;;;;;;;4960638;28;20065;-79
2023/01/08 05:01:31;;;;;;;4.55;4.07;;;;;;;;;;4948803;29;20059;-79
2023/01/08 05:04:02;;;;;;;4.55;3.80;;;;;;;;;;4941552;29;20070;-79
2023/01/08 05:06:30;;;;;;;5.05;3.72;;;;;;;;;;4925152;29;20503;-79
2023/01/08 05:08:57;;;;;;;4.00;3.60;;;;;;;;;;4925200;29;20070;-79
2023/01/08 05:11:24;;;;;;;4.65;3.63;;;;;;;;;;4947694;28;20059;-79
2023/01/08 05:13:51;;;;;;;5.53;3.47;;;;;;;;;;4975342;28;20062;-79
2023/01/08 05:16:20;;;;;;;5.20;3.88;;;;;;;;;;4959137;28;20062;-79
2023/01/08 05:18:47;;;;;;;5.28;4.00;;;;;;;;;;4959460;28;20055;-79
2023/01/08 05:21:14;;;;;;;5.05;3.50;;;;;;;;;;4971216;28;20059;-78
2023/01/08 05:23:44;;;;;;;4.72;3.72;;;;;;;;;;4961632;28;20427;-79
2023/01/08 05:26:11;;;;;;;4.03;3.00;;;;;;;;;;4960648;28;20090;-78
2023/01/08 05:28:37;;;;;;;4.57;3.25;;;;;;;;;;4959381;28;20055;-79
2023/01/08 05:31:04;;;;;;;4.03;3.10;;;;;;;;;;4938936;28;20055;-79
2023/01/08 05:33:31;;;;;;;4.65;3.00;;;;;;;;;;4959510;28;20134;-79
2023/01/08 05:35:58;;;;;;;3.55;2.60;;;;;;;;;;4943830;29;20055;-79
2023/01/08 05:38:25;;;;;;;3.00;2.25;;;;;;;;;;4959277;29;20047;-79
2023/01/08 05:40:52;;;;;;;2.58;2.05;;;;;;;;;;4948333;28;20046;-80
2023/01/08 05:43:19;;;;;;;2.70;1.75;;;;;;;;;;4978693;28;20465;-79
2023/01/08 05:45:46;;;;;;;5.22;1.73;;;;;;;;;;4962323;28;20062;-80
2023/01/08 05:48:13;;;;;;;1.58;1.45;;;;;;;;;;4961550;28;20053;-80
2023/01/08 05:50:39;;;;;;;1.40;1.30;;;;;;;;;;4976338;28;20061;-80
2023/01/08 05:53:06;;;;;;;2.60;1.30;;;;;;;;;;4973767;28;20043;-80
2023/01/08 05:55:33;;;;;;;1.15;0.95;;;;;;;;;;4975563;28;20049;-80
2023/01/08 05:58:01;;;;;;;1.45;1.10;;;;;;;;;;4943654;28;20051;-81
2023/01/08 06:00:28;;;;;;;1.40;1.20;;;;;;;;;;4945996;28;20069;-81
2023/01/08 06:02:55;;;;;;;1.15;0.90;;;;;;;;;;4947788;28;20051;-81
2023/01/08 06:05:22;;;;;;;1.08;0.98;;;;;;;;;;4960642;28;20054;-81
2023/01/08 06:07:49;;;;;;;1.15;0.90;;;;;;;;;;4945502;28;20062;-81
2023/01/08 06:10:15;;;;;;;3.22;0.80;;;;;;;;;;4959752;28;20066;-80
2023/01/08 06:12:42;;;;;;;2.13;1.20;;;;;;;;;;4941002;28;20062;-81
2023/01/08 06:15:10;;;;;;;0.80;0.80;;;;;;;;;;4940174;29;20059;-81
2023/01/08 06:17:37;;;;;;;2.85;1.02;;;;;;;;;;4939399;29;20493;-82
2023/01/08 06:20:04;;;;;;;1.85;0.88;;;;;;;;;;4939424;28;20066;-81
2023/01/08 06:22:32;;;;;;;0.95;0.75;;;;;;;;;;4958154;28;20411;-81
2023/01/08 06:24:59;;;;;;;0.93;0.70;;;;;;;;;;4958976;28;20121;-81
2023/01/08 06:27:26;;;;;;;1.75;1.10;;;;;;;;;;4959318;28;20492;-81
2023/01/08 06:29:52;;;;;;;1.10;1.00;;;;;;;;;;4931675;28;20127;-81
2023/01/08 06:32:19;;;;;;;1.20;0.80;;;;;;;;;;4925244;29;20059;-81
2023/01/08 06:34:46;;;;;;;0.90;0.90;;;;;;;;;;4955760;28;20059;-81
2023/01/08 06:37:13;;;;;;;2.30;1.02;;;;;;;;;;4941072;29;20110;-80
2023/01/08 06:39:39;;;;;;;1.90;1.15;;;;;;;;;;4956311;28;20053;-81
2023/01/08 06:42:06;;;;;;;1.33;0.80;;;;;;;;;;4956761;28;20054;-81
2023/01/08 06:44:33;;;;;;;1.55;0.90;;;;;;;;;;4941781;28;20082;-81
2023/01/08 06:47:02;;;;;;;1.25;0.98;;;;;;;;;;4937931;28;20050;-81
2023/01/08 06:49:29;;;;;;;2.42;1.17;;;;;;;;;;4963985;28;20046;-81
2023/01/08 06:51:56;;;;;;;2.60;1.73;;;;;;;;;;4966895;28;20031;-81
2023/01/08 06:54:23;;;;;;;2.33;1.10;;;;;;;;;;4952101;28;20042;-80
2023/01/08 06:56:49;;;;;;;0.93;0.75;;;;;;;;;;4951853;28;20059;-80
2023/01/08 06:59:20;;;;;;;1.77;0.90;;;;;;;;;;4975792;28;20062;-80
2023/01/08 07:01:47;;;;;;;0.95;0.93;;;;;;;;;;4958284;28;20469;-81
2023/01/08 07:04:14;;;;;;;0.75;0.60;;;;;;;;;;4967869;28;20078;-81
2023/01/08 07:06:41;;;;;;;1.70;0.90;;;;;;;;;;4961247;28;20057;-80
2023/01/08 07:09:11;;;;;;;0.60;0.50;;;;;;;;;;4961107;28;20064;-81
2023/01/08 07:11:38;;;;;;;2.17;0.77;;;;;;;;;;4934941;28;20619;-82
2023/01/08 07:14:05;;;;;;;0.70;0.60;;;;;;;;;;4960429;28;20058;-82
2023/01/08 07:16:32;;;;;;;0.70;0.70;;;;;;;;;;4973862;28;20066;-82
2023/01/08 07:18:58;;;;;;;0.80;0.65;;;;;;;;;;4941939;28;20059;-82
2023/01/08 07:21:25;;;;;;;1.15;0.50;;;;;;;;;;4941755;28;20050;-81
2023/01/08 07:23:52;;;;;;;3.63;0.90;;;;;;;;;;4941906;28;20070;-81
2023/01/08 07:26:19;;;;;;;0.80;0.77;;;;;;;;;;4942087;28;20062;-81
2023/01/08 07:28:45;;;;;;;1.50;0.65;;;;;;;;;;4942884;28;20393;-82
2023/01/08 07:31:12;;;;;;;0.85;0.68;;;;;;;;;;4920070;29;20059;-81
2023/01/08 07:33:39;;;;;;;0.50;0.50;;;;;;;;;;4947897;29;20055;-81
2023/01/08 07:36:06;;;;;;;0.68;0.47;;;;;;;;;;4925599;29;20055;-82
2023/01/08 07:38:33;;;;;;;0.88;0.60;;;;;;;;;;4928574;28;20053;-80
2023/01/08 07:41:00;;;;;;;0.85;0.60;;;;;;;;;;4971685;28;20065;-79
2023/01/08 07:43:28;;;;;;;1.50;0.77;;;;;;;;;;4937875;28;20099;-78
2023/01/08 07:45:56;;;;;;;1.10;0.90;;;;;;;;;;4936378;28;20108;-78
2023/01/08 07:48:23;;;;;;;0.95;0.80;;;;;;;;;;4967062;28;20477;-78
2023/01/08 07:50:50;;;;;;;0.73;0.52;;;;;;;;;;4947410;28;20133;-78
2023/01/08 07:53:16;;;;;;;0.57;0.50;;;;;;;;;;4943684;28;20110;-79
2023/01/08 07:55:43;;;;;;;1.58;0.70;;;;;;;;;;4959838;28;20058;-79
2023/01/08 07:58:12;;;;;;;0.90;0.70;;;;;;;;;;4973910;28;20050;-80
2023/01/08 08:00:39;;;;;;;0.70;0.65;;;;;;;;;;4941194;29;20055;-78
2023/01/08 08:03:08;;;;;;;0.95;0.80;;;;;;;;;;4939282;29;20091;-79
2023/01/08 08:05:34;;;;;;;4.50;1.20;;;;;;;;;;4940027;29;20102;-82
2023/01/08 08:08:06;;;;;;;1.13;0.60;;;;;;;;;;4939921;28;20480;-85
2023/01/08 08:10:33;;;;;;;0.85;0.65;;;;;;;;;;4957322;28;20047;-78
2023/01/08 08:12:59;;;;;;;1.13;0.60;;;;;;;;;;4956372;28;20066;-77
2023/01/08 08:15:26;;;;;;;1.45;1.15;;;;;;;;;;4957087;28;20061;-78
2023/01/08 08:17:53;;;;;;;0.90;0.80;;;;;;;;;;4955888;28;20054;-76
2023/01/08 08:20:20;;;;;;;1.15;0.95;;;;;;;;;;4930918;28;20066;-78
2023/01/08 08:22:46;;;;;;;1.08;0.90;;;;;;;;;;4939858;28;20050;-78
2023/01/08 08:25:14;;;;;;;1.13;0.80;;;;;;;;;;4956294;28;20061;-79
2023/01/08 08:27:41;;;;;;;1.50;0.80;;;;;;;;;;4939277;28;20077;-78
2023/01/08 08:30:09;;;;;;;1.52;0.80;;;;;;;;;;4939880;28;20474;-78
2023/01/08 08:32:36;;;;;;;1.27;0.68;;;;;;;;;;4955659;28;20097;-78
2023/01/08 08:35:04;;;;;;;1.13;0.77;;;;;;;;;;4940073;28;20047;-79
2023/01/08 08:37:31;;;;;;;1.00;0.80;;;;;;;;;;4969343;28;20055;-78
2023/01/08 08:39:57;;;;;;;6.85;3.60;;;;;;;;;;4956765;28;20046;-78
2023/01/08 08:42:24;;;;;;;5.05;2.47;;;;;;;;;;4956754;28;20057;-79
2023/01/08 08:44:51;;;;;;;1.80;1.45;;;;;;;;;;4924455;28;20058;-79
2023/01/08 08:47:18;;;;;;;0.93;0.80;;;;;;;;;;4921183;28;20504;-79
2023/01/08 08:49:44;;;;;;;1.30;0.93;;;;;;;;;;4949573;28;20046;-79
2023/01/08 08:52:11;;;;;;;4.93;1.98;;;;;;;;;;4977453;28;20058;-78
2023/01/08 08:54:40;;;;;;;8.05;2.95;;;;;;;;;;4937477;29;20068;-79
2023/01/08 08:57:10;;;;;;;4.30;1.80;;;;;;;;;;4960766;28;20507;-79
2023/01/08 08:59:37;;;;;;;3.50;1.73;;;;;;;;;;4961271;28;20387;-81
2023/01/08 09:02:04;;;;;;;4.13;1.92;;;;;;;;;;4959834;28;20082;-78
2023/01/08 09:04:31;;;;;;;2.83;1.05;;;;;;;;;;4958987;28;20061;-77
2023/01/08 09:06:58;;;;;;;3.47;1.42;;;;;;;;;;4944144;28;20050;-79
2023/01/08 09:09:25;;;;;;;2.58;1.50;;;;;;;;;;4927324;28;20073;-78
2023/01/08 09:11:52;;;;;;;1.38;1.13;;;;;;;;;;4958993;28;20055;-78
2023/01/08 09:14:20;;;;;;;1.92;1.30;;;;;;;;;;4941429;28;20051;-78
2023/01/08 09:16:47;;;;;;;1.25;0.70;;;;;;;;;;4942718;28;20062;-78
2023/01/08 09:19:13;;;;;;;1.95;0.93;;;;;;;;;;4958234;28;20117;-77
2023/01/08 09:21:40;;;;;;;1.23;0.70;;;;;;;;;;4974228;28;20058;-79
2023/01/08 09:24:07;;;;;;;0.90;0.85;;;;;;;;;;4948555;28;20058;-79
2023/01/08 09:26:34;;;;;;;3.40;2.88;;;;;;;;;;4952682;28;20062;-76
2023/01/08 09:29:01;;;;;;;2.10;1.80;;;;;;;;;;4960134;28;20499;-77
2023/01/08 09:31:28;;;;;;;2.45;0.93;;;;;;;;;;4973958;28;20058;-77
2023/01/08 09:33:54;;;;;;;2.03;1.60;;;;;;;;;;4964971;28;20080;-77
2023/01/08 09:36:21;;;;;;;1.25;0.90;;;;;;;;;;4947027;29;20051;-78
2023/01/08 09:38:51;;;;;;;1.85;1.05;;;;;;;;;;4954334;28;20054;-78
2023/01/08 09:41:24;;;;;;;2.40;0.98;;;;;;;;;;4958051;28;20059;-77
2023/01/08 09:43:51;;;;;;;2.45;0.90;;;;;;;;;;4941202;29;20123;-79
2023/01/08 09:46:20;;;;;;;1.17;0.73;;;;;;;;;;4953841;29;20055;-78
2023/01/08 09:48:47;;;;;;;0.90;0.70;;;;;;;;;;4929486;29;20289;-79
2023/01/08 09:51:16;;;;;;;0.70;0.70;;;;;;;;;;4922367;29;20062;-80
2023/01/08 09:53:43;;;;;;;2.47;1.10;;;;;;;;;;4939339;29;20540;-78
2023/01/08 09:56:15;;;;;;;4.35;0.85;;;;;;;;;;4954617;29;20518;-80
2023/01/08 09:58:49;;;;;;;0.80;0.80;;;;;;;;;;4940566;29;20059;-81
2023/01/08 10:01:20;;;;;;;1.42;0.85;;;;;;;;;;4939962;29;20064;-78
2023/01/08 10:03:51;;;;;;;1.38;1.00;;;;;;;;;;4940786;28;20065;-80
2023/01/08 10:06:18;;;;;;;1.15;1.05;;;;;;;;;;4941565;28;20062;-79
2023/01/08 10:08:45;;;;;;;1.13;1.02;;;;;;;;;;4945037;28;20051;-79
2023/01/08 10:11:12;;;;;;;1.55;1.30;;;;;;;;;;4958323;29;20111;-80
2023/01/08 10:13:40;;;;;;;1.30;1.02;;;;;;;;;;4952220;28;20058;-78
2023/01/08 10:16:09;;;;;;;2.67;1.20;;;;;;;;;;4945584;28;20047;-79
2023/01/08 10:18:36;;;;;;;2.17;1.00;;;;;;;;;;4949639;28;20062;-79
2023/01/08 10:21:03;;;;;;;1.90;1.15;;;;;;;;;;4945604;28;20050;-79
2023/01/08 10:23:30;;;;;;;1.80;1.00;;;;;;;;;;4924947;29;20050;-77
2023/01/08 10:25:58;;;;;;;2.38;1.58;;;;;;;;;;4980630;28;20046;-78
2023/01/08 10:28:29;;;;;;;1.67;1.02;;;;;;;;;;4949171;28;20050;-78
2023/01/08 10:31:08;;;;;;;1.50;0.80;;;;;;;;;;4957244;28;20051;-78
2023/01/08 10:33:41;;;;;;;1.83;1.02;;;;;;;;;;4906850;29;20082;-78
2023/01/08 10:36:09;;;;;;;2.17;0.95;;;;;;;;;;4937202;29;20066;-78
2023/01/08 10:38:41;;;;;;;1.48;0.93;;;;;;;;;;4908358;28;20058;-78
2023/01/08 10:41:11;;;;;;;0.90;0.60;;;;;;;;;;4948761;28;20051;-79
2023/01/08 10:43:56;;;;;;;1.10;1.00;;;;;;;;;;4951549;28;20406;-78
2023/01/08 10:46:29;;;;;;;1.17;0.93;;;;;;;;;;4964904;28;20050;-78
2023/01/08 10:49:00;;;;;;;1.08;0.88;;;;;;;;;;4958318;28;20050;-79
2023/01/08 10:51:28;;;;;;;0.82;0.63;;;;;;;;;;4944583;28;20045;-79
2023/01/08 10:53:59;;;;;;;0.80;0.70;;;;;;;;;;4961710;28;20054;-78
2023/01/08 10:56:28;;;;;;;1.15;0.60;;;;;;;;;;4939232;28;20050;-79
2023/01/08 10:58:55;;;;;;;1.08;0.80;;;;;;;;;;4959227;28;20050;-79
2023/01/08 11:01:22;;;;;;;1.10;0.80;;;;;;;;;;4932084;28;20499;-79
2023/01/08 11:03:50;;;;;;;1.88;0.70;;;;;;;;;;4964802;28;20058;-79
2023/01/08 11:06:23;;;;;;;1.42;0.90;;;;;;;;;;4933052;28;20053;-78
2023/01/08 11:08:54;;;;;;;0.87;0.70;;;;;;;;;;4948745;28;20069;-79
2023/01/08 11:11:21;;;;;;;1.00;0.60;;;;;;;;;;4954341;28;20303;-79
2023/01/08 11:13:58;;;;;;;1.48;0.75;;;;;;;;;;4942295;28;20906;-79
2023/01/08 11:16:51;;;;;;;1.98;1.20;;;;;;;;;;4960459;28;20069;-79
2023/01/08 11:19:33;;;;;;;1.02;0.70;;;;;;;;;;4948286;28;20046;-79
2023/01/08 11:22:02;;;;;;;1.47;0.80;;;;;;;;;;4951189;28;20054;-76
2023/01/08 11:24:31;;;;;;;2.30;0.80;;;;;;;;;;4948209;28;20055;-78
2023/01/08 11:27:05;;;;;;;2.05;0.90;;;;;;;;;;4967116;28;20043;-78
2023/01/08 11:29:50;;;;;;;0.90;0.80;;;;;;;;;;4959581;28;20054;-79
2023/01/08 11:32:39;;;;;;;0.85;0.80;;;;;;;;;;4964736;28;20065;-78
2023/01/08 11:35:12;;;;;;;1.52;0.70;;;;;;;;;;4956058;28;20046;-78
2023/01/08 11:37:50;;;;;;;0.50;0.50;;;;;;;;;;4939705;28;20063;-78
2023/01/08 11:40:22;;;;;;;2.03;1.00;;;;;;;;;;4957234;28;20125;-78
2023/01/08 11:43:17;;;;;;;1.17;0.90;;;;;;;;;;4942481;28;20047;-79
2023/01/08 11:45:50;;;;;;;1.05;0.75;;;;;;;;;;4957851;28;20138;-79
2023/01/08 11:48:19;;;;;;;0.75;0.50;;;;;;;;;;4957831;28;20047;-80
2023/01/08 11:50:59;;;;;;;0.40;0.40;;;;;;;;;;4973080;28;20046;-80
2023/01/08 11:53:32;;;;;;;0.80;0.60;;;;;;;;;;4955859;28;20062;-79
2023/01/08 11:56:20;;;;;;;0.55;0.50;;;;;;;;;;4957516;28;20065;-79
2023/01/08 11:59:06;;;;;;;0.52;0.43;;;;;;;;;;4972997;28;20055;-79
2023/01/08 12:01:54;;;;;;;0.50;0.50;;;;;;;;;;4956625;28;20526;-80
2023/01/08 12:04:44;;;;;;;0.50;0.50;;;;;;;;;;4956688;28;20054;-80
2023/01/08 12:07:11;;;;;;;0.50;0.50;;;;;;;;;;4951410;28;20167;-80
2023/01/08 12:09:55;;;;;;;0.85;0.77;;;;;;;;;;4959092;28;20050;-80
2023/01/08 12:12:34;;;;;;;0.63;0.60;;;;;;;;;;4964380;28;20047;-79
2023/01/08 12:15:14;;;;;;;0.57;0.40;;;;;;;;;;4956639;28;20134;-79
2023/01/08 12:17:40;;;;;;;1.25;0.90;;;;;;;;;;4956689;28;20070;-76
2023/01/08 12:20:16;;;;;;;1.25;0.60;;;;;;;;;;4954319;28;20051;-76
2023/01/08 12:23:02;;;;;;;0.82;0.45;;;;;;;;;;4942227;28;20592;-78
2023/01/08 12:25:43;;;;;;;0.63;0.60;;;;;;;;;;4938441;28;20051;-78
2023/01/08 12:28:22;;;;;;;1.77;0.60;;;;;;;;;;4958796;29;20456;-82
2023/01/08 12:31:07;;;;;;;0.40;0.40;;;;;;;;;;4959412;29;20055;-82
2023/01/08 12:33:45;;;;;;;0.30;0.30;;;;;;;;;;4971817;28;20475;-80
2023/01/08 12:36:17;;;;;;;1.40;0.60;;;;;;;;;;4947932;29;20047;-82
2023/01/08 12:39:19;;;;;;;1.65;1.05;;;;;;;;;;4926854;29;20138;-81
2023/01/08 12:41:46;;;;;;;1.08;0.57;;;;;;;;;;4956638;28;20407;-82
2023/01/08 12:44:13;;;;;;;1.80;0.60;;;;;;;;;;4961762;28;20058;-81
2023/01/08 12:46:44;;;;;;;0.65;0.60;;;;;;;;;;4948741;28;20054;-81
2023/01/08 12:49:14;;;;;;;0.88;0.52;;;;;;;;;;4948972;28;20065;-80
2023/01/08 12:51:59;;;;;;;0.50;0.50;;;;;;;;;;4959834;28;20049;-79
2023/01/08 12:54:52;;;;;;;0.68;0.38;;;;;;;;;;4942416;29;20106;-79
2023/01/08 12:57:24;;;;;;;1.27;0.40;;;;;;;;;;4942536;29;20181;-79
2023/01/08 13:00:06;;;;;;;0.70;0.70;;;;;;;;;;4941625;29;20053;-79
2023/01/08 13:02:55;;;;;;;0.80;0.50;;;;;;;;;;4941809;29;20058;-79
2023/01/08 13:05:22;;;;;;;1.10;0.70;;;;;;;;;;4941451;29;20051;-79
2023/01/08 13:07:57;;;;;;;0.77;0.50;;;;;;;;;;4941499;29;20059;-79
2023/01/08 13:10:30;;;;;;;1.48;0.82;;;;;;;;;;4940945;29;20095;-78
2023/01/08 13:12:57;;;;;;;3.78;2.22;;;;;;;;;;4944058;28;20384;-78
2023/01/08 13:15:25;;;;;;;7.13;3.85;;;;;;;;;;4958482;28;20062;-77
2023/01/08 13:17:57;;;;;;;9.95;4.97;;;;;;;;;;4974421;28;20059;-78
2023/01/08 13:20:26;;;;;;;7.97;3.85;;;;;;;;;;4953296;28;20081;-82
2023/01/08 13:22:53;;;;;;;2.30;1.30;;;;;;;;;;4963128;28;20460;-82
2023/01/08 13:25:20;;;;;;;1.05;0.80;;;;;;;;;;4925433;28;20058;-80
2023/01/08 13:27:47;;;;;;;1.48;0.57;;;;;;;;;;4959458;28;20058;-82
2023/01/08 13:30:33;;;;;;;1.05;0.57;;;;;;;;;;4959784;28;20419;-82
2023/01/08 13:33:01;;;;;;;4.63;3.63;;;;;;;;;;4966615;28;20050;-81
2023/01/08 13:35:30;;;;;;;1.00;0.90;;;;;;;;;;4952119;28;20070;-82
2023/01/08 13:38:09;;;;;;;1.90;1.00;;;;;;;;;;4930462;28;20072;-83
2023/01/08 13:40:45;;;;;;;1.00;0.82;;;;;;;;;;4959915;28;20054;-80
2023/01/08 13:43:36;;;;;;;1.15;0.70;;;;;;;;;;4958221;28;20055;-81
2023/01/08 13:46:03;;;;;;;1.35;0.82;;;;;;;;;;4955270;28;20527;-81
2023/01/08 13:48:47;;;;;;;1.55;0.93;;;;;;;;;;4942212;28;20066;-81
2023/01/08 13:51:42;;;;;;;1.20;0.80;;;;;;;;;;4939305;29;20051;-78
2023/01/08 13:54:12;;;;;;;1.95;1.40;;;;;;;;;;4954429;29;20051;-82
2023/01/08 13:56:40;;;;;;;1.67;1.30;;;;;;;;;;4945051;28;20050;-82
2023/01/08 13:59:21;;;;;;;1.10;0.80;;;;;;;;;;4939050;28;20051;-82
2023/01/08 14:01:52;;;;;;;1.42;0.98;;;;;;;;;;4926253;28;20043;-82
2023/01/08 14:04:21;;;;;;;1.83;1.17;;;;;;;;;;4962186;28;20095;-82
2023/01/08 14:06:48;;;;;;;0.75;0.70;;;;;;;;;;4946446;28;20110;-82
2023/01/08 14:09:21;;;;;;;1.67;0.60;;;;;;;;;;4954950;28;20055;-82
2023/01/08 14:11:49;;;;;;;;;;;;;;;;;;4926189;28;20047;-82
2023/01/08 14:14:20;;;;;;;0.65;0.60;;;;;;;;;;4925042;29;19922;-82
2023/01/08 14:16:47;;;;;;;2.70;1.00;;;;;;;;;;4940746;29;20416;-82
2023/01/08 14:19:22;;;;;;;1.65;1.05;;;;;;;;;;4944205;28;20062;-82
2023/01/08 14:21:50;;;;;;;2.30;1.23;;;;;;;;;;4943408;28;20065;-83
2023/01/08 14:24:18;;;;;;;1.30;0.60;;;;;;;;;;4945640;28;20074;-82
2023/01/08 14:26:57;;;;;;;1.75;1.10;;;;;;;;;;4974366;28;20117;-81
2023/01/08 14:29:26;;;;;;;1.08;0.90;;;;;;;;;;4957781;28;20233;-81
2023/01/08 14:31:55;;;;;;;1.38;0.75;;;;;;;;;;4958562;28;20058;-81
2023/01/08 14:34:23;;;;;;;1.13;0.98;;;;;;;;;;4958481;28;20054;-81
2023/01/08 14:36:50;;;;;;;1.05;0.88;;;;;;;;;;4942679;28;20054;-81
2023/01/08 14:39:23;;;;;;;1.52;0.80;;;;;;;;;;4958454;28;20055;-81
2023/01/08 14:44:38;;;;;;;1.23;0.68;;;;;;;;;;4972351;28;20054;-81
2023/01/08 14:47:16;;;;;;;0.82;0.65;;;;;;;;;;4937091;29;20055;-81
2023/01/08 14:49:48;;;;;;;1.00;0.63;;;;;;;;;;4938051;29;20055;-81
2023/01/08 14:52:17;;;;;;;1.10;1.00;;;;;;;;;;4956976;28;20054;-81
2023/01/08 14:54:44;;;;;;;1.27;0.80;;;;;;;;;;4942008;28;20059;-82
2023/01/08 14:57:10;;;;;;;1.08;0.70;;;;;;;;;;4957298;28;20061;-82
2023/01/08 14:59:37;;;;;;;0.70;0.70;;;;;;;;;;4957939;28;20073;-81
2023/01/08 15:02:06;;;;;;;1.60;0.90;;;;;;;;;;4974176;28;20077;-82
2023/01/08 15:04:33;;;;;;;3.67;1.10;;;;;;;;;;4922841;29;20047;-81